sensor_id;sensor_type;location;lat;lon;timestamp;P1;durP1;ratioP1;P2;durP2;ratioP2
3549;SDS011;45572;48.804;8.330;2022-12-05T00:01:14;24.80;;;14.32;;
3549;SDS011;45572;48.804;8.330;2022-12-05T00:03:43;31.00;;;12.45;;
3549;SDS011;45572;48.804;8.330;2022-12-05T00:06:12;24.90;;;14.00;;
3549;SDS011;45572;48.804;8.330;2022-12-05T00:08:39;21.45;;;11.15;;
3549;SDS011;45572;48.804;8.330;2022-12-05T00:11:11;27.02;;;13.85;;
3549;SDS011;45572;48.804;8.330;2022-12-05T00:13:41;20.95;;;12.02;;
3549;SDS011;45572;48.804;8.330;2022-12-05T00:16:10;25.08;;;11.70;;
3549;SDS011;45572;48.804;8.330;2022-12-05T00:18:39;28.08;;;12.52;;
3549;SDS011;45572;48.804;8.330;2022-12-05T00:21:10;24.70;;;12.18;;
3549;SDS011;45572;48.804;8.330;2022-12-05T00:23:40;23.77;;;13.02;;
3549;SDS011;45572;48.804;8.330;2022-12-05T00:26:08;22.35;;;12.00;;
3549;SDS011;45572;48.804;8.330;2022-12-05T00:28:37;28.38;;;12.57;;
3549;SDS011;45572;48.804;8.330;2022-12-05T00:31:07;24.30;;;14.23;;
3549;SDS011;45572;48.804;8.330;2022-12-05T00:33:37;22.48;;;13.75;;
3549;SDS011;45572;48.804;8.330;2022-12-05T00:36:06;25.60;;;13.18;;
3549;SDS011;45572;48.804;8.330;2022-12-05T00:38:36;25.40;;;12.07;;
3549;SDS011;45572;48.804;8.330;2022-12-05T00:41:04;23.92;;;12.13;;
3549;SDS011;45572;48.804;8.330;2022-12-05T00:43:33;32.97;;;14.82;;
3549;SDS011;45572;48.804;8.330;2022-12-05T00:46:01;24.73;;;12.20;;
3549;SDS011;45572;48.804;8.330;2022-12-05T00:48:30;25.35;;;13.27;;
3549;SDS011;45572;48.804;8.330;2022-12-05T00:50:59;19.30;;;10.60;;
3549;SDS011;45572;48.804;8.330;2022-12-05T00:53:28;26.15;;;13.13;;
3549;SDS011;45572;48.804;8.330;2022-12-05T00:55:56;32.15;;;11.90;;
3549;SDS011;45572;48.804;8.330;2022-12-05T00:58:28;27.35;;;12.00;;
3549;SDS011;45572;48.804;8.330;2022-12-05T01:00:57;25.27;;;12.77;;
3549;SDS011;45572;48.804;8.330;2022-12-05T01:03:32;21.23;;;11.40;;
3549;SDS011;45572;48.804;8.330;2022-12-05T01:06:00;25.52;;;11.15;;
3549;SDS011;45572;48.804;8.330;2022-12-05T01:08:28;29.35;;;13.73;;
3549;SDS011;45572;48.804;8.330;2022-12-05T01:10:56;32.30;;;13.98;;
3549;SDS011;45572;48.804;8.330;2022-12-05T01:13:24;24.65;;;13.30;;
3549;SDS011;45572;48.804;8.330;2022-12-05T01:15:53;26.70;;;12.93;;
3549;SDS011;45572;48.804;8.330;2022-12-05T01:18:21;24.20;;;13.35;;
3549;SDS011;45572;48.804;8.330;2022-12-05T01:20:51;22.55;;;11.10;;
3549;SDS011;45572;48.804;8.330;2022-12-05T01:23:19;30.10;;;13.10;;
3549;SDS011;45572;48.804;8.330;2022-12-05T01:25:48;31.42;;;14.85;;
3549;SDS011;45572;48.804;8.330;2022-12-05T01:28:17;28.35;;;13.07;;
3549;SDS011;45572;48.804;8.330;2022-12-05T01:30:46;20.70;;;11.90;;
3549;SDS011;45572;48.804;8.330;2022-12-05T01:33:15;21.80;;;12.30;;
3549;SDS011;45572;48.804;8.330;2022-12-05T01:35:43;25.58;;;12.13;;
3549;SDS011;45572;48.804;8.330;2022-12-05T01:38:13;25.02;;;11.70;;
3549;SDS011;45572;48.804;8.330;2022-12-05T01:40:41;21.70;;;12.00;;
3549;SDS011;45572;48.804;8.330;2022-12-05T01:43:12;22.35;;;11.85;;
3549;SDS011;45572;48.804;8.330;2022-12-05T01:45:42;24.90;;;11.45;;
3549;SDS011;45572;48.804;8.330;2022-12-05T01:48:12;24.02;;;11.93;;
3549;SDS011;45572;48.804;8.330;2022-12-05T01:50:43;22.20;;;12.02;;
3549;SDS011;45572;48.804;8.330;2022-12-05T01:53:13;22.40;;;11.00;;
3549;SDS011;45572;48.804;8.330;2022-12-05T01:55:42;19.90;;;10.52;;
3549;SDS011;45572;48.804;8.330;2022-12-05T01:58:11;21.98;;;11.73;;
3549;SDS011;45572;48.804;8.330;2022-12-05T02:00:40;21.17;;;11.10;;
3549;SDS011;45572;48.804;8.330;2022-12-05T02:03:10;20.40;;;12.13;;
3549;SDS011;45572;48.804;8.330;2022-12-05T02:05:42;19.73;;;10.70;;
3549;SDS011;45572;48.804;8.330;2022-12-05T02:08:14;28.48;;;11.52;;
3549;SDS011;45572;48.804;8.330;2022-12-05T02:10:43;22.02;;;11.10;;
3549;SDS011;45572;48.804;8.330;2022-12-05T02:13:19;19.80;;;10.52;;
3549;SDS011;45572;48.804;8.330;2022-12-05T02:15:58;25.20;;;10.90;;
3549;SDS011;45572;48.804;8.330;2022-12-05T02:18:33;24.70;;;12.50;;
3549;SDS011;45572;48.804;8.330;2022-12-05T02:21:18;25.85;;;11.55;;
3549;SDS011;45572;48.804;8.330;2022-12-05T02:24:13;19.77;;;10.82;;
3549;SDS011;45572;48.804;8.330;2022-12-05T02:26:56;24.92;;;12.00;;
3549;SDS011;45572;48.804;8.330;2022-12-05T02:32:37;29.20;;;12.90;;
3549;SDS011;45572;48.804;8.330;2022-12-05T02:35:15;29.13;;;12.68;;
3549;SDS011;45572;48.804;8.330;2022-12-05T02:37:55;26.50;;;12.27;;
3549;SDS011;45572;48.804;8.330;2022-12-05T02:40:33;27.70;;;11.95;;
3549;SDS011;45572;48.804;8.330;2022-12-05T02:43:09;26.90;;;11.65;;
3549;SDS011;45572;48.804;8.330;2022-12-05T02:45:43;24.65;;;11.35;;
3549;SDS011;45572;48.804;8.330;2022-12-05T02:48:14;26.95;;;11.93;;
3549;SDS011;45572;48.804;8.330;2022-12-05T02:50:45;21.05;;;11.35;;
3549;SDS011;45572;48.804;8.330;2022-12-05T02:53:15;28.02;;;13.07;;
3549;SDS011;45572;48.804;8.330;2022-12-05T02:55:45;25.95;;;12.40;;
3549;SDS011;45572;48.804;8.330;2022-12-05T02:58:14;24.15;;;12.02;;
3549;SDS011;45572;48.804;8.330;2022-12-05T03:00:46;25.00;;;11.60;;
3549;SDS011;45572;48.804;8.330;2022-12-05T03:03:18;31.42;;;13.52;;
3549;SDS011;45572;48.804;8.330;2022-12-05T03:05:49;28.75;;;12.40;;
3549;SDS011;45572;48.804;8.330;2022-12-05T03:08:24;25.77;;;11.57;;
3549;SDS011;45572;48.804;8.330;2022-12-05T03:10:55;25.75;;;12.23;;
3549;SDS011;45572;48.804;8.330;2022-12-05T03:13:27;30.65;;;14.00;;
3549;SDS011;45572;48.804;8.330;2022-12-05T03:15:59;26.10;;;12.38;;
3549;SDS011;45572;48.804;8.330;2022-12-05T03:18:33;20.27;;;11.18;;
3549;SDS011;45572;48.804;8.330;2022-12-05T03:21:07;25.42;;;12.93;;
3549;SDS011;45572;48.804;8.330;2022-12-05T03:23:41;28.88;;;13.85;;
3549;SDS011;45572;48.804;8.330;2022-12-05T03:26:15;21.42;;;11.25;;
3549;SDS011;45572;48.804;8.330;2022-12-05T03:28:53;26.70;;;11.07;;
3549;SDS011;45572;48.804;8.330;2022-12-05T03:31:38;25.40;;;13.35;;
3549;SDS011;45572;48.804;8.330;2022-12-05T03:34:13;27.75;;;11.50;;
3549;SDS011;45572;48.804;8.330;2022-12-05T03:36:48;24.85;;;10.68;;
3549;SDS011;45572;48.804;8.330;2022-12-05T03:39:17;25.20;;;12.20;;
3549;SDS011;45572;48.804;8.330;2022-12-05T03:41:52;22.60;;;12.15;;
3549;SDS011;45572;48.804;8.330;2022-12-05T03:44:26;24.85;;;11.60;;
3549;SDS011;45572;48.804;8.330;2022-12-05T03:46:58;25.95;;;12.60;;
3549;SDS011;45572;48.804;8.330;2022-12-05T03:49:32;26.98;;;11.75;;
3549;SDS011;45572;48.804;8.330;2022-12-05T03:52:04;20.13;;;11.38;;
3549;SDS011;45572;48.804;8.330;2022-12-05T03:54:36;25.80;;;14.15;;
3549;SDS011;45572;48.804;8.330;2022-12-05T03:57:09;19.77;;;10.82;;
3549;SDS011;45572;48.804;8.330;2022-12-05T03:59:43;21.88;;;11.60;;
3549;SDS011;45572;48.804;8.330;2022-12-05T04:02:15;26.77;;;11.18;;
3549;SDS011;45572;48.804;8.330;2022-12-05T04:04:52;23.90;;;12.90;;
3549;SDS011;45572;48.804;8.330;2022-12-05T04:07:22;27.83;;;12.88;;
3549;SDS011;45572;48.804;8.330;2022-12-05T04:09:54;25.92;;;13.38;;
3549;SDS011;45572;48.804;8.330;2022-12-05T04:12:26;27.85;;;12.73;;
3549;SDS011;45572;48.804;8.330;2022-12-05T04:14:57;29.98;;;12.23;;
3549;SDS011;45572;48.804;8.330;2022-12-05T04:17:31;21.08;;;11.73;;
3549;SDS011;45572;48.804;8.330;2022-12-05T04:20:04;23.80;;;10.95;;
3549;SDS011;45572;48.804;8.330;2022-12-05T04:22:50;26.20;;;11.45;;
3549;SDS011;45572;48.804;8.330;2022-12-05T04:25:18;30.52;;;14.73;;
3549;SDS011;45572;48.804;8.330;2022-12-05T04:28:04;23.42;;;12.05;;
3549;SDS011;45572;48.804;8.330;2022-12-05T04:30:47;30.00;;;13.85;;
3549;SDS011;45572;48.804;8.330;2022-12-05T04:33:21;23.80;;;11.63;;
3549;SDS011;45572;48.804;8.330;2022-12-05T04:35:57;33.17;;;13.40;;
3549;SDS011;45572;48.804;8.330;2022-12-05T04:38:29;24.60;;;11.23;;
3549;SDS011;45572;48.804;8.330;2022-12-05T04:41:04;26.20;;;13.23;;
3549;SDS011;45572;48.804;8.330;2022-12-05T04:43:35;20.92;;;11.18;;
3549;SDS011;45572;48.804;8.330;2022-12-05T04:46:06;22.40;;;13.10;;
3549;SDS011;45572;48.804;8.330;2022-12-05T04:48:37;24.85;;;12.65;;
3549;SDS011;45572;48.804;8.330;2022-12-05T04:51:11;21.38;;;10.82;;
3549;SDS011;45572;48.804;8.330;2022-12-05T04:53:43;23.63;;;12.52;;
3549;SDS011;45572;48.804;8.330;2022-12-05T04:56:14;24.63;;;11.75;;
3549;SDS011;45572;48.804;8.330;2022-12-05T04:58:45;21.77;;;10.88;;
3549;SDS011;45572;48.804;8.330;2022-12-05T05:01:13;21.35;;;10.40;;
3549;SDS011;45572;48.804;8.330;2022-12-05T05:03:47;25.02;;;12.85;;
3549;SDS011;45572;48.804;8.330;2022-12-05T05:06:18;24.23;;;10.07;;
3549;SDS011;45572;48.804;8.330;2022-12-05T05:08:47;22.17;;;11.70;;
3549;SDS011;45572;48.804;8.330;2022-12-05T05:11:17;23.15;;;11.05;;
3549;SDS011;45572;48.804;8.330;2022-12-05T05:13:47;23.75;;;13.15;;
3549;SDS011;45572;48.804;8.330;2022-12-05T05:16:16;25.35;;;11.07;;
3549;SDS011;45572;48.804;8.330;2022-12-05T05:18:46;19.85;;;11.40;;
3549;SDS011;45572;48.804;8.330;2022-12-05T05:21:16;22.10;;;11.75;;
3549;SDS011;45572;48.804;8.330;2022-12-05T05:23:47;18.92;;;10.50;;
3549;SDS011;45572;48.804;8.330;2022-12-05T05:26:15;21.75;;;11.55;;
3549;SDS011;45572;48.804;8.330;2022-12-05T05:28:43;24.58;;;11.32;;
3549;SDS011;45572;48.804;8.330;2022-12-05T05:31:12;22.50;;;11.73;;
3549;SDS011;45572;48.804;8.330;2022-12-05T05:33:40;22.33;;;11.75;;
3549;SDS011;45572;48.804;8.330;2022-12-05T05:36:09;22.35;;;11.52;;
3549;SDS011;45572;48.804;8.330;2022-12-05T05:38:40;15.38;;;10.57;;
3549;SDS011;45572;48.804;8.330;2022-12-05T05:41:11;23.45;;;11.65;;
3549;SDS011;45572;48.804;8.330;2022-12-05T05:43:40;21.17;;;11.27;;
3549;SDS011;45572;48.804;8.330;2022-12-05T05:46:08;21.52;;;10.82;;
3549;SDS011;45572;48.804;8.330;2022-12-05T05:48:37;22.02;;;11.88;;
3549;SDS011;45572;48.804;8.330;2022-12-05T05:51:05;21.42;;;11.23;;
3549;SDS011;45572;48.804;8.330;2022-12-05T05:53:34;24.98;;;11.43;;
3549;SDS011;45572;48.804;8.330;2022-12-05T05:56:04;21.15;;;11.35;;
3549;SDS011;45572;48.804;8.330;2022-12-05T05:58:34;27.13;;;12.05;;
3549;SDS011;45572;48.804;8.330;2022-12-05T06:01:02;19.35;;;11.27;;
3549;SDS011;45572;48.804;8.330;2022-12-05T06:03:30;21.25;;;10.93;;
3549;SDS011;45572;48.804;8.330;2022-12-05T06:05:59;27.20;;;11.48;;
3549;SDS011;45572;48.804;8.330;2022-12-05T06:08:28;17.92;;;9.80;;
3549;SDS011;45572;48.804;8.330;2022-12-05T06:10:57;23.83;;;11.60;;
3549;SDS011;45572;48.804;8.330;2022-12-05T06:13:26;18.33;;;9.30;;
3549;SDS011;45572;48.804;8.330;2022-12-05T06:15:54;21.05;;;9.90;;
3549;SDS011;45572;48.804;8.330;2022-12-05T06:18:22;17.95;;;10.80;;
3549;SDS011;45572;48.804;8.330;2022-12-05T06:20:50;21.73;;;11.48;;
3549;SDS011;45572;48.804;8.330;2022-12-05T06:23:19;23.08;;;11.98;;
3549;SDS011;45572;48.804;8.330;2022-12-05T06:25:47;18.35;;;9.73;;
3549;SDS011;45572;48.804;8.330;2022-12-05T06:28:16;22.35;;;10.32;;
3549;SDS011;45572;48.804;8.330;2022-12-05T06:30:46;17.83;;;9.90;;
3549;SDS011;45572;48.804;8.330;2022-12-05T06:33:15;19.48;;;10.55;;
3549;SDS011;45572;48.804;8.330;2022-12-05T06:35:43;21.00;;;11.02;;
3549;SDS011;45572;48.804;8.330;2022-12-05T06:38:13;16.40;;;11.15;;
3549;SDS011;45572;48.804;8.330;2022-12-05T06:40:41;20.83;;;10.52;;
3549;SDS011;45572;48.804;8.330;2022-12-05T06:43:10;22.70;;;10.43;;
3549;SDS011;45572;48.804;8.330;2022-12-05T06:45:38;21.15;;;11.63;;
3549;SDS011;45572;48.804;8.330;2022-12-05T06:48:07;24.77;;;9.60;;
3549;SDS011;45572;48.804;8.330;2022-12-05T06:50:35;19.17;;;10.00;;
3549;SDS011;45572;48.804;8.330;2022-12-05T06:53:03;19.13;;;10.00;;
3549;SDS011;45572;48.804;8.330;2022-12-05T06:55:30;21.00;;;10.38;;
3549;SDS011;45572;48.804;8.330;2022-12-05T06:57:58;24.77;;;11.30;;
3549;SDS011;45572;48.804;8.330;2022-12-05T07:00:26;20.70;;;10.55;;
3549;SDS011;45572;48.804;8.330;2022-12-05T07:03:10;22.63;;;10.55;;
3549;SDS011;45572;48.804;8.330;2022-12-05T07:05:38;17.27;;;10.38;;
3549;SDS011;45572;48.804;8.330;2022-12-05T07:08:06;15.43;;;9.75;;
3549;SDS011;45572;48.804;8.330;2022-12-05T07:10:34;18.42;;;10.38;;
3549;SDS011;45572;48.804;8.330;2022-12-05T07:13:01;21.92;;;10.10;;
3549;SDS011;45572;48.804;8.330;2022-12-05T07:15:29;18.95;;;9.38;;
3549;SDS011;45572;48.804;8.330;2022-12-05T07:17:59;18.42;;;9.65;;
3549;SDS011;45572;48.804;8.330;2022-12-05T07:20:28;21.23;;;9.52;;
3549;SDS011;45572;48.804;8.330;2022-12-05T07:23:18;17.23;;;8.77;;
3549;SDS011;45572;48.804;8.330;2022-12-05T07:25:47;18.42;;;9.65;;
3549;SDS011;45572;48.804;8.330;2022-12-05T07:28:15;20.70;;;9.75;;
3549;SDS011;45572;48.804;8.330;2022-12-05T07:30:43;15.32;;;9.07;;
3549;SDS011;45572;48.804;8.330;2022-12-05T07:33:11;15.82;;;8.88;;
3549;SDS011;45572;48.804;8.330;2022-12-05T07:35:40;13.50;;;8.00;;
3549;SDS011;45572;48.804;8.330;2022-12-05T07:38:09;19.67;;;10.35;;
3549;SDS011;45572;48.804;8.330;2022-12-05T07:40:36;16.67;;;8.95;;
3549;SDS011;45572;48.804;8.330;2022-12-05T07:43:04;22.00;;;10.40;;
3549;SDS011;45572;48.804;8.330;2022-12-05T07:45:32;16.25;;;9.23;;
3549;SDS011;45572;48.804;8.330;2022-12-05T07:48:01;20.60;;;10.48;;
3549;SDS011;45572;48.804;8.330;2022-12-05T07:50:28;17.45;;;8.45;;
3549;SDS011;45572;48.804;8.330;2022-12-05T07:52:59;23.17;;;11.23;;
3549;SDS011;45572;48.804;8.330;2022-12-05T07:55:27;13.55;;;8.38;;
3549;SDS011;45572;48.804;8.330;2022-12-05T07:57:54;19.63;;;10.10;;
3549;SDS011;45572;48.804;8.330;2022-12-05T08:00:23;14.55;;;8.48;;
3549;SDS011;45572;48.804;8.330;2022-12-05T08:02:51;13.73;;;9.25;;
3549;SDS011;45572;48.804;8.330;2022-12-05T08:05:21;13.73;;;8.65;;
3549;SDS011;45572;48.804;8.330;2022-12-05T08:07:48;14.13;;;9.80;;
3549;SDS011;45572;48.804;8.330;2022-12-05T08:10:18;21.35;;;8.88;;
3549;SDS011;45572;48.804;8.330;2022-12-05T08:12:48;16.92;;;9.25;;
3549;SDS011;45572;48.804;8.330;2022-12-05T08:15:16;18.15;;;9.35;;
3549;SDS011;45572;48.804;8.330;2022-12-05T08:17:46;13.32;;;8.20;;
3549;SDS011;45572;48.804;8.330;2022-12-05T08:20:13;21.75;;;10.15;;
3549;SDS011;45572;48.804;8.330;2022-12-05T08:22:41;19.95;;;9.13;;
3549;SDS011;45572;48.804;8.330;2022-12-05T08:25:09;15.18;;;9.85;;
3549;SDS011;45572;48.804;8.330;2022-12-05T08:27:38;20.52;;;10.15;;
3549;SDS011;45572;48.804;8.330;2022-12-05T08:30:09;16.67;;;8.75;;
3549;SDS011;45572;48.804;8.330;2022-12-05T08:32:37;19.15;;;9.73;;
3549;SDS011;45572;48.804;8.330;2022-12-05T08:35:06;18.13;;;9.43;;
3549;SDS011;45572;48.804;8.330;2022-12-05T08:37:35;14.38;;;8.75;;
3549;SDS011;45572;48.804;8.330;2022-12-05T08:40:04;16.13;;;9.85;;
3549;SDS011;45572;48.804;8.330;2022-12-05T08:42:35;18.63;;;10.43;;
3549;SDS011;45572;48.804;8.330;2022-12-05T08:45:07;17.15;;;10.77;;
3549;SDS011;45572;48.804;8.330;2022-12-05T08:47:35;17.35;;;9.10;;
3549;SDS011;45572;48.804;8.330;2022-12-05T08:50:06;17.85;;;9.85;;
3549;SDS011;45572;48.804;8.330;2022-12-05T08:52:36;21.02;;;9.25;;
3549;SDS011;45572;48.804;8.330;2022-12-05T08:55:05;17.25;;;9.55;;
3549;SDS011;45572;48.804;8.330;2022-12-05T08:57:33;16.30;;;9.35;;
3549;SDS011;45572;48.804;8.330;2022-12-05T09:00:06;17.48;;;9.00;;
3549;SDS011;45572;48.804;8.330;2022-12-05T09:02:38;18.67;;;10.00;;
3549;SDS011;45572;48.804;8.330;2022-12-05T09:05:06;17.48;;;8.98;;
3549;SDS011;45572;48.804;8.330;2022-12-05T09:07:53;15.18;;;9.35;;
3549;SDS011;45572;48.804;8.330;2022-12-05T09:10:25;18.63;;;10.07;;
3549;SDS011;45572;48.804;8.330;2022-12-05T09:12:56;17.13;;;9.25;;
3549;SDS011;45572;48.804;8.330;2022-12-05T09:15:28;19.63;;;11.60;;
3549;SDS011;45572;48.804;8.330;2022-12-05T09:17:56;19.45;;;10.45;;
3549;SDS011;45572;48.804;8.330;2022-12-05T09:20:24;17.45;;;10.52;;
3549;SDS011;45572;48.804;8.330;2022-12-05T09:22:58;18.10;;;10.38;;
3549;SDS011;45572;48.804;8.330;2022-12-05T09:25:28;21.80;;;11.30;;
3549;SDS011;45572;48.804;8.330;2022-12-05T09:28:02;18.25;;;11.63;;
3549;SDS011;45572;48.804;8.330;2022-12-05T09:30:31;18.75;;;12.25;;
3549;SDS011;45572;48.804;8.330;2022-12-05T09:33:00;20.92;;;11.27;;
3549;SDS011;45572;48.804;8.330;2022-12-05T09:35:28;26.30;;;13.10;;
3549;SDS011;45572;48.804;8.330;2022-12-05T09:37:56;28.27;;;15.40;;
3549;SDS011;45572;48.804;8.330;2022-12-05T09:40:23;23.10;;;12.50;;
3549;SDS011;45572;48.804;8.330;2022-12-05T09:42:55;21.58;;;12.98;;
3549;SDS011;45572;48.804;8.330;2022-12-05T09:45:32;21.50;;;12.60;;
3549;SDS011;45572;48.804;8.330;2022-12-05T09:48:10;24.50;;;12.45;;
3549;SDS011;45572;48.804;8.330;2022-12-05T09:50:43;20.15;;;12.73;;
3549;SDS011;45572;48.804;8.330;2022-12-05T09:53:14;22.80;;;11.70;;
3549;SDS011;45572;48.804;8.330;2022-12-05T09:55:52;22.90;;;12.30;;
3549;SDS011;45572;48.804;8.330;2022-12-05T09:58:24;21.90;;;12.63;;
3549;SDS011;45572;48.804;8.330;2022-12-05T10:00:59;21.15;;;11.70;;
3549;SDS011;45572;48.804;8.330;2022-12-05T10:03:34;23.73;;;12.63;;
3549;SDS011;45572;48.804;8.330;2022-12-05T10:06:11;21.65;;;11.90;;
3549;SDS011;45572;48.804;8.330;2022-12-05T10:08:47;26.60;;;13.23;;
3549;SDS011;45572;48.804;8.330;2022-12-05T10:11:31;22.90;;;13.27;;
3549;SDS011;45572;48.804;8.330;2022-12-05T10:14:04;22.98;;;12.13;;
3549;SDS011;45572;48.804;8.330;2022-12-05T10:16:37;22.92;;;13.73;;
3549;SDS011;45572;48.804;8.330;2022-12-05T10:19:12;19.08;;;12.07;;
3549;SDS011;45572;48.804;8.330;2022-12-05T10:21:44;20.65;;;13.30;;
3549;SDS011;45572;48.804;8.330;2022-12-05T10:24:17;19.75;;;10.80;;
3549;SDS011;45572;48.804;8.330;2022-12-05T10:26:53;20.63;;;11.30;;
3549;SDS011;45572;48.804;8.330;2022-12-05T10:29:30;16.15;;;10.23;;
3549;SDS011;45572;48.804;8.330;2022-12-05T10:32:03;19.80;;;11.18;;
3549;SDS011;45572;48.804;8.330;2022-12-05T10:34:38;19.23;;;10.75;;
3549;SDS011;45572;48.804;8.330;2022-12-05T10:37:08;23.30;;;12.25;;
3549;SDS011;45572;48.804;8.330;2022-12-05T10:39:39;18.40;;;10.00;;
3549;SDS011;45572;48.804;8.330;2022-12-05T10:42:08;18.45;;;11.07;;
3549;SDS011;45572;48.804;8.330;2022-12-05T10:44:41;18.33;;;9.68;;
3549;SDS011;45572;48.804;8.330;2022-12-05T10:47:14;19.45;;;10.40;;
3549;SDS011;45572;48.804;8.330;2022-12-05T10:49:44;20.27;;;10.25;;
3549;SDS011;45572;48.804;8.330;2022-12-05T10:52:14;16.92;;;9.75;;
3549;SDS011;45572;48.804;8.330;2022-12-05T10:54:43;18.55;;;10.90;;
3549;SDS011;45572;48.804;8.330;2022-12-05T10:57:21;17.58;;;11.02;;
3549;SDS011;45572;48.804;8.330;2022-12-05T10:59:51;19.80;;;10.73;;
3549;SDS011;45572;48.804;8.330;2022-12-05T11:02:24;15.43;;;10.60;;
3549;SDS011;45572;48.804;8.330;2022-12-05T11:04:54;16.17;;;9.57;;
3549;SDS011;45572;48.804;8.330;2022-12-05T11:07:26;16.20;;;9.45;;
3549;SDS011;45572;48.804;8.330;2022-12-05T11:10:17;18.23;;;9.00;;
3549;SDS011;45572;48.804;8.330;2022-12-05T11:12:52;16.73;;;9.55;;
3549;SDS011;45572;48.804;8.330;2022-12-05T11:15:23;13.50;;;9.43;;
3549;SDS011;45572;48.804;8.330;2022-12-05T11:17:54;18.52;;;9.98;;
3549;SDS011;45572;48.804;8.330;2022-12-05T11:20:32;14.43;;;9.15;;
3549;SDS011;45572;48.804;8.330;2022-12-05T11:23:14;15.90;;;9.32;;
3549;SDS011;45572;48.804;8.330;2022-12-05T11:25:47;15.75;;;9.40;;
3549;SDS011;45572;48.804;8.330;2022-12-05T11:31:00;14.07;;;8.63;;
3549;SDS011;45572;48.804;8.330;2022-12-05T11:33:31;12.10;;;8.45;;
3549;SDS011;45572;48.804;8.330;2022-12-05T11:36:02;14.75;;;8.75;;
3549;SDS011;45572;48.804;8.330;2022-12-05T11:38:36;15.25;;;8.05;;
3549;SDS011;45572;48.804;8.330;2022-12-05T11:41:10;13.00;;;7.78;;
3549;SDS011;45572;48.804;8.330;2022-12-05T11:43:54;13.30;;;8.90;;
3549;SDS011;45572;48.804;8.330;2022-12-05T11:46:39;25.50;;;14.68;;
3549;SDS011;45572;48.804;8.330;2022-12-05T11:49:23;33.20;;;12.93;;
3549;SDS011;45572;48.804;8.330;2022-12-05T11:52:04;20.55;;;11.90;;
3549;SDS011;45572;48.804;8.330;2022-12-05T11:57:35;20.55;;;9.65;;
3549;SDS011;45572;48.804;8.330;2022-12-05T12:00:18;16.20;;;9.13;;
3549;SDS011;45572;48.804;8.330;2022-12-05T12:02:57;18.45;;;9.82;;
3549;SDS011;45572;48.804;8.330;2022-12-05T12:05:51;20.52;;;11.00;;
3549;SDS011;45572;48.804;8.330;2022-12-05T12:08:28;9.63;;;7.40;;
3549;SDS011;45572;48.804;8.330;2022-12-05T12:11:01;15.23;;;8.30;;
3549;SDS011;45572;48.804;8.330;2022-12-05T12:13:38;16.63;;;8.65;;
3549;SDS011;45572;48.804;8.330;2022-12-05T12:16:18;14.02;;;8.52;;
3549;SDS011;45572;48.804;8.330;2022-12-05T12:19:03;10.20;;;7.38;;
3549;SDS011;45572;48.804;8.330;2022-12-05T12:21:50;12.18;;;6.95;;
3549;SDS011;45572;48.804;8.330;2022-12-05T12:24:36;11.27;;;7.80;;
3549;SDS011;45572;48.804;8.330;2022-12-05T12:27:25;11.70;;;7.43;;
3549;SDS011;45572;48.804;8.330;2022-12-05T12:30:01;12.05;;;7.93;;
3549;SDS011;45572;48.804;8.330;2022-12-05T12:32:34;12.90;;;8.50;;
3549;SDS011;45572;48.804;8.330;2022-12-05T12:35:12;12.77;;;7.63;;
3549;SDS011;45572;48.804;8.330;2022-12-05T12:37:55;10.27;;;6.75;;
3549;SDS011;45572;48.804;8.330;2022-12-05T12:40:43;11.40;;;7.13;;
3549;SDS011;45572;48.804;8.330;2022-12-05T12:43:19;14.00;;;7.07;;
3549;SDS011;45572;48.804;8.330;2022-12-05T12:46:24;10.63;;;6.68;;
3549;SDS011;45572;48.804;8.330;2022-12-05T12:49:07;15.77;;;7.82;;
3549;SDS011;45572;48.804;8.330;2022-12-05T12:51:50;12.15;;;7.05;;
3549;SDS011;45572;48.804;8.330;2022-12-05T12:54:24;12.73;;;6.10;;
3549;SDS011;45572;48.804;8.330;2022-12-05T12:57:28;7.70;;;4.60;;
3549;SDS011;45572;48.804;8.330;2022-12-05T13:00:05;7.15;;;5.10;;
3549;SDS011;45572;48.804;8.330;2022-12-05T13:02:40;10.85;;;6.07;;
3549;SDS011;45572;48.804;8.330;2022-12-05T13:05:15;9.57;;;5.70;;
3549;SDS011;45572;48.804;8.330;2022-12-05T13:07:50;9.93;;;5.55;;
3549;SDS011;45572;48.804;8.330;2022-12-05T13:10:25;8.57;;;4.50;;
3549;SDS011;45572;48.804;8.330;2022-12-05T13:12:59;8.27;;;5.32;;
3549;SDS011;45572;48.804;8.330;2022-12-05T13:15:30;11.27;;;6.25;;
3549;SDS011;45572;48.804;8.330;2022-12-05T13:18:02;7.38;;;5.38;;
3549;SDS011;45572;48.804;8.330;2022-12-05T13:20:32;9.50;;;7.75;;
3549;SDS011;45572;48.804;8.330;2022-12-05T13:23:02;9.00;;;5.95;;
3549;SDS011;45572;48.804;8.330;2022-12-05T13:25:35;7.47;;;5.65;;
3549;SDS011;45572;48.804;8.330;2022-12-05T13:28:05;9.48;;;5.22;;
3549;SDS011;45572;48.804;8.330;2022-12-05T13:30:50;9.30;;;7.03;;
3549;SDS011;45572;48.804;8.330;2022-12-05T13:33:30;7.68;;;5.38;;
3549;SDS011;45572;48.804;8.330;2022-12-05T13:36:04;12.02;;;5.60;;
3549;SDS011;45572;48.804;8.330;2022-12-05T13:38:48;9.70;;;5.35;;
3549;SDS011;45572;48.804;8.330;2022-12-05T13:41:39;7.38;;;5.07;;
3549;SDS011;45572;48.804;8.330;2022-12-05T13:44:26;10.63;;;6.57;;
3549;SDS011;45572;48.804;8.330;2022-12-05T13:46:59;5.93;;;4.75;;
3549;SDS011;45572;48.804;8.330;2022-12-05T13:49:40;8.27;;;4.53;;
3549;SDS011;45572;48.804;8.330;2022-12-05T13:52:16;20.20;;;9.43;;
3549;SDS011;45572;48.804;8.330;2022-12-05T13:54:49;13.18;;;11.23;;
3549;SDS011;45572;48.804;8.330;2022-12-05T14:03:04;8.98;;;5.65;;
3549;SDS011;45572;48.804;8.330;2022-12-05T14:05:45;7.75;;;5.95;;
3549;SDS011;45572;48.804;8.330;2022-12-05T14:11:17;10.32;;;5.70;;
3549;SDS011;45572;48.804;8.330;2022-12-05T14:13:46;8.10;;;5.68;;
3549;SDS011;45572;48.804;8.330;2022-12-05T14:19:12;9.43;;;4.85;;
3549;SDS011;45572;48.804;8.330;2022-12-05T14:21:58;8.25;;;4.55;;
3549;SDS011;45572;48.804;8.330;2022-12-05T14:24:36;7.65;;;5.22;;
3549;SDS011;45572;48.804;8.330;2022-12-05T14:27:15;8.93;;;5.63;;
3549;SDS011;45572;48.804;8.330;2022-12-05T14:30:03;7.72;;;5.18;;
3549;SDS011;45572;48.804;8.330;2022-12-05T14:32:39;6.78;;;5.40;;
3549;SDS011;45572;48.804;8.330;2022-12-05T14:35:11;9.45;;;5.45;;
3549;SDS011;45572;48.804;8.330;2022-12-05T14:37:49;12.50;;;6.25;;
3549;SDS011;45572;48.804;8.330;2022-12-05T14:40:25;12.13;;;6.55;;
3549;SDS011;45572;48.804;8.330;2022-12-05T14:42:58;17.15;;;8.32;;
3549;SDS011;45572;48.804;8.330;2022-12-05T14:45:31;11.65;;;6.07;;
3549;SDS011;45572;48.804;8.330;2022-12-05T14:48:03;12.43;;;7.93;;
3549;SDS011;45572;48.804;8.330;2022-12-05T14:50:49;7.00;;;5.40;;
3549;SDS011;45572;48.804;8.330;2022-12-05T14:53:23;11.80;;;5.57;;
3549;SDS011;45572;48.804;8.330;2022-12-05T14:56:00;10.27;;;5.65;;
3549;SDS011;45572;48.804;8.330;2022-12-05T14:58:34;9.38;;;5.72;;
3549;SDS011;45572;48.804;8.330;2022-12-05T15:01:14;6.80;;;4.85;;
3549;SDS011;45572;48.804;8.330;2022-12-05T15:03:57;7.88;;;5.80;;
3549;SDS011;45572;48.804;8.330;2022-12-05T15:06:35;8.80;;;5.65;;
3549;SDS011;45572;48.804;8.330;2022-12-05T15:09:26;9.32;;;5.50;;
3549;SDS011;45572;48.804;8.330;2022-12-05T15:12:09;7.10;;;4.80;;
3549;SDS011;45572;48.804;8.330;2022-12-05T15:14:42;8.98;;;5.25;;
3549;SDS011;45572;48.804;8.330;2022-12-05T15:17:16;9.13;;;5.80;;
3549;SDS011;45572;48.804;8.330;2022-12-05T15:19:50;10.15;;;5.15;;
3549;SDS011;45572;48.804;8.330;2022-12-05T15:22:24;9.18;;;5.20;;
3549;SDS011;45572;48.804;8.330;2022-12-05T15:24:54;8.07;;;5.25;;
3549;SDS011;45572;48.804;8.330;2022-12-05T15:27:22;9.55;;;4.95;;
3549;SDS011;45572;48.804;8.330;2022-12-05T15:29:52;7.97;;;5.75;;
3549;SDS011;45572;48.804;8.330;2022-12-05T15:32:24;12.57;;;5.50;;
3549;SDS011;45572;48.804;8.330;2022-12-05T15:34:55;11.50;;;6.90;;